全部
Mallacoota Airport (Mallacoota, Victoria) XMC 天气
|
Mallacoota, Victoria (XMC / YMCO)
晴天
微风 |
|
14 °C |
There is no TAF data available at XMC or any nearby airports.
XMC近期METAR历史数据
| Date | Time (AEST) | Flight Rules | Wind Dir. | Speed | Type | Height AGL (ft) | Visibility | Temp (°C) | Temp (°F) | Dew Point (°C) | Dew Point (°F) | Rel. Humid. | Pressure | Density Altitude | Remarks |
|---|---|---|---|---|---|---|---|---|---|---|---|---|---|---|---|
| 06-五月 | 09:00 | n/a | 290° | 6 kt | Missing | 14° | 57° | 9° | 48° | 72% | 1020 mb | -235 ft | |||
| 06-五月 | 08:00 | n/a | 310° | 6 kt | Missing | 11° | 51° | 8° | 46° | 82% | 1020 mb | -595 ft | |||
| 06-五月 | 07:00 | n/a | 300° | 6 kt | Missing | 8° | 46° | 7° | 44° | 93% | 1020 mb | -955 ft | |||
| 06-五月 | 06:00 | n/a | 300° | 6 kt | Missing | 9° | 48° | 7° | 44° | 87% | 1020 mb | -835 ft | |||
| 06-五月 | 05:00 | n/a | 300° | 5 kt | Missing | 10° | 50° | 8° | 46° | 87% | 1020 mb | -715 ft | |||
| 06-五月 | 04:00 | n/a | 310° | 4 kt | Missing | 9° | 48° | 8° | 46° | 93% | 1020 mb | -835 ft | |||
| 06-五月 | 03:00 | n/a | 300° | 5 kt | Missing | 11° | 51° | 9° | 48° | 87% | 1020 mb | -595 ft | |||
| 06-五月 | 02:00 | n/a | 290° | 4 kt | Missing | 12° | 53° | 9° | 48° | 82% | 1021 mb | -504 ft | |||
| 06-五月 | 01:00 | n/a | 280° | 5 kt | Missing | 13° | 55° | 10° | 50° | 82% | 1021 mb | -384 ft | |||
| 06-五月 | 00:00 | n/a | 270° | 6 kt | Missing | 14° | 57° | 11° | 51° | 82% | 1021 mb | -264 ft | |||
| 05-五月 | 23:00 | n/a | 290° | 4 kt | Missing | 14° | 57° | 12° | 53° | 88% | 1022 mb | -294 ft | |||
| 05-五月 | 22:00 | n/a | 270° | 5 kt | Missing | 14° | 57° | 12° | 53° | 88% | 1022 mb | -294 ft | |||
| 05-五月 | 21:00 | n/a | 230° | 6 kt | Missing | 14° | 57° | 12° | 53° | 88% | 1022 mb | -294 ft | |||
| 05-五月 | 20:00 | n/a | 280° | 4 kt | Missing | 15° | 59° | 12° | 53° | 82% | 1021 mb | -144 ft | |||
| 05-五月 | 19:00 | n/a | 250° | 6 kt | Missing | 15° | 59° | 11° | 51° | 77% | 1020 mb | -115 ft | |||
| 05-五月 | 18:00 | n/a | 240° | 7 kt | Missing | 15° | 59° | 11° | 51° | 77% | 1019 mb | -85 ft | |||
| 05-五月 | 17:00 | n/a | 230° | 5 kt | Missing | 16° | 60° | 10° | 50° | 68% | 1018 mb | 64 ft | |||
| 05-五月 | 16:00 | n/a | 240° | 8 kt | Missing | 17° | 62° | 9° | 48° | 59% | 1018 mb | 184 ft | |||
| 05-五月 | 15:00 | n/a | 240° | 11 kt | Missing | 18° | 64° | 10° | 50° | 59% | 1017 mb | 334 ft | |||
| 05-五月 | 14:00 | n/a | 250° | 10 kt | Missing | 19° | 66° | 10° | 50° | 56% | 1016 mb | 484 ft | |||
| 05-五月 | 13:00 | n/a | 240° | 10 kt | Missing | 19° | 66° | 9° | 48° | 52% | 1016 mb | 484 ft | Wind gusting to 20 KT | ||
| 05-五月 | 12:00 | n/a | 250° | 9 kt | Missing | 20° | 68° | 9° | 48° | 49% | 1016 mb | 604 ft | |||
| 05-五月 | 11:00 | n/a | 250° | 9 kt | Missing | 19° | 66° | 9° | 48° | 52% | 1016 mb | 484 ft | |||
| 05-五月 | 10:00 | n/a | 270° | 7 kt | Missing | 18° | 64° | 8° | 46° | 52% | 1016 mb | 364 ft |
登录
| 您的浏览器不支持. 升级您的浏览器 |
